sensor_id;sensor_type;location;lat;lon;timestamp;temperature;humidity
48666;DHT22;34452;50.796;4.994;2023-02-19T00:01:31;10.70;99.90
48666;DHT22;34452;50.796;4.994;2023-02-19T00:04:00;10.70;99.90
48666;DHT22;34452;50.796;4.994;2023-02-19T00:06:29;10.70;99.90
48666;DHT22;34452;50.796;4.994;2023-02-19T00:08:55;10.70;99.90
48666;DHT22;34452;50.796;4.994;2023-02-19T00:11:23;10.70;99.90
48666;DHT22;34452;50.796;4.994;2023-02-19T00:13:51;10.70;99.90
48666;DHT22;34452;50.796;4.994;2023-02-19T00:16:21;10.70;99.90
48666;DHT22;34452;50.796;4.994;2023-02-19T00:18:47;10.70;99.90
48666;DHT22;34452;50.796;4.994;2023-02-19T00:21:13;10.70;99.90
48666;DHT22;34452;50.796;4.994;2023-02-19T00:23:39;10.70;99.90
48666;DHT22;34452;50.796;4.994;2023-02-19T00:26:08;10.70;99.90
48666;DHT22;34452;50.796;4.994;2023-02-19T00:28:34;10.70;99.90
48666;DHT22;34452;50.796;4.994;2023-02-19T00:31:20;10.70;99.90
48666;DHT22;34452;50.796;4.994;2023-02-19T00:33:47;10.70;99.90
48666;DHT22;34452;50.796;4.994;2023-02-19T00:36:13;10.70;99.90
48666;DHT22;34452;50.796;4.994;2023-02-19T00:38:40;10.70;99.90
48666;DHT22;34452;50.796;4.994;2023-02-19T00:41:07;10.70;99.90
48666;DHT22;34452;50.796;4.994;2023-02-19T00:43:47;10.60;99.90
48666;DHT22;34452;50.796;4.994;2023-02-19T00:46:15;10.70;99.90
48666;DHT22;34452;50.796;4.994;2023-02-19T00:48:41;10.60;99.90
48666;DHT22;34452;50.796;4.994;2023-02-19T00:51:07;10.70;99.90
48666;DHT22;34452;50.796;4.994;2023-02-19T00:53:33;10.70;99.90
48666;DHT22;34452;50.796;4.994;2023-02-19T00:55:59;10.70;99.90
48666;DHT22;34452;50.796;4.994;2023-02-19T00:58:24;10.70;99.90
48666;DHT22;34452;50.796;4.994;2023-02-19T01:00:50;10.60;99.90
48666;DHT22;34452;50.796;4.994;2023-02-19T01:03:16;10.70;99.90
48666;DHT22;34452;50.796;4.994;2023-02-19T01:05:41;10.70;99.90
48666;DHT22;34452;50.796;4.994;2023-02-19T01:08:07;10.60;99.90
48666;DHT22;34452;50.796;4.994;2023-02-19T01:10:33;10.70;99.90
48666;DHT22;34452;50.796;4.994;2023-02-19T01:12:58;10.60;99.90
48666;DHT22;34452;50.796;4.994;2023-02-19T01:15:24;10.70;99.90
48666;DHT22;34452;50.796;4.994;2023-02-19T01:17:50;10.70;99.90
48666;DHT22;34452;50.796;4.994;2023-02-19T01:20:15;10.80;99.90
48666;DHT22;34452;50.796;4.994;2023-02-19T01:22:41;10.70;99.90
48666;DHT22;34452;50.796;4.994;2023-02-19T01:25:07;10.70;99.90
48666;DHT22;34452;50.796;4.994;2023-02-19T01:27:33;10.80;99.90
48666;DHT22;34452;50.796;4.994;2023-02-19T01:29:58;10.70;99.90
48666;DHT22;34452;50.796;4.994;2023-02-19T01:32:24;10.70;99.90
48666;DHT22;34452;50.796;4.994;2023-02-19T01:34:50;10.80;99.90
48666;DHT22;34452;50.796;4.994;2023-02-19T01:37:15;10.80;99.90
48666;DHT22;34452;50.796;4.994;2023-02-19T01:39:41;10.80;99.90
48666;DHT22;34452;50.796;4.994;2023-02-19T01:42:12;10.80;99.90
48666;DHT22;34452;50.796;4.994;2023-02-19T01:47:04;10.80;99.90
48666;DHT22;34452;50.796;4.994;2023-02-19T01:49:35;10.80;99.90
48666;DHT22;34452;50.796;4.994;2023-02-19T01:52:11;10.80;99.90
48666;DHT22;34452;50.796;4.994;2023-02-19T01:54:40;10.90;99.90
48666;DHT22;34452;50.796;4.994;2023-02-19T01:57:11;10.80;99.90
48666;DHT22;34452;50.796;4.994;2023-02-19T01:59:38;10.90;99.90
48666;DHT22;34452;50.796;4.994;2023-02-19T02:02:04;10.80;99.90
48666;DHT22;34452;50.796;4.994;2023-02-19T02:04:30;10.80;99.90
48666;DHT22;34452;50.796;4.994;2023-02-19T02:06:59;10.80;99.90
48666;DHT22;34452;50.796;4.994;2023-02-19T02:09:28;10.80;99.90
48666;DHT22;34452;50.796;4.994;2023-02-19T02:12:13;10.80;99.90
48666;DHT22;34452;50.796;4.994;2023-02-19T02:14:42;10.80;99.90
48666;DHT22;34452;50.796;4.994;2023-02-19T02:17:25;10.80;99.90
48666;DHT22;34452;50.796;4.994;2023-02-19T02:31:27;10.70;99.90
48666;DHT22;34452;50.796;4.994;2023-02-19T02:34:06;10.70;99.90
48666;DHT22;34452;50.796;4.994;2023-02-19T02:36:36;10.70;99.90
48666;DHT22;34452;50.796;4.994;2023-02-19T02:39:05;10.70;99.90
48666;DHT22;34452;50.796;4.994;2023-02-19T02:41:32;10.70;99.90
48666;DHT22;34452;50.796;4.994;2023-02-19T02:43:58;10.60;99.90
48666;DHT22;34452;50.796;4.994;2023-02-19T02:46:43;10.60;99.90
48666;DHT22;34452;50.796;4.994;2023-02-19T02:49:16;10.60;99.90
48666;DHT22;34452;50.796;4.994;2023-02-19T02:51:48;10.70;99.90
48666;DHT22;34452;50.796;4.994;2023-02-19T02:54:21;10.70;99.90
48666;DHT22;34452;50.796;4.994;2023-02-19T02:57:07;10.60;99.90
48666;DHT22;34452;50.796;4.994;2023-02-19T02:59:36;10.70;99.90
48666;DHT22;34452;50.796;4.994;2023-02-19T03:02:07;10.70;99.90
48666;DHT22;34452;50.796;4.994;2023-02-19T03:04:45;10.70;99.90
48666;DHT22;34452;50.796;4.994;2023-02-19T03:07:36;10.70;99.90
48666;DHT22;34452;50.796;4.994;2023-02-19T03:10:05;10.70;99.90
48666;DHT22;34452;50.796;4.994;2023-02-19T03:12:32;10.60;99.90
48666;DHT22;34452;50.796;4.994;2023-02-19T03:15:18;10.70;99.90
48666;DHT22;34452;50.796;4.994;2023-02-19T03:18:06;10.60;99.90
48666;DHT22;34452;50.796;4.994;2023-02-19T03:20:54;10.60;99.90
48666;DHT22;34452;50.796;4.994;2023-02-19T03:23:22;10.60;99.90
48666;DHT22;34452;50.796;4.994;2023-02-19T03:26:10;10.60;99.90
48666;DHT22;34452;50.796;4.994;2023-02-19T03:28:38;10.60;99.90
48666;DHT22;34452;50.796;4.994;2023-02-19T03:31:24;10.60;99.90
48666;DHT22;34452;50.796;4.994;2023-02-19T03:33:56;10.60;99.90
48666;DHT22;34452;50.796;4.994;2023-02-19T03:36:23;10.60;99.90
48666;DHT22;34452;50.796;4.994;2023-02-19T03:38:57;10.60;99.90
48666;DHT22;34452;50.796;4.994;2023-02-19T03:47:16;10.50;99.90
48666;DHT22;34452;50.796;4.994;2023-02-19T03:49:44;10.50;99.90
48666;DHT22;34452;50.796;4.994;2023-02-19T04:00:14;10.50;99.90
48666;DHT22;34452;50.796;4.994;2023-02-19T04:02:46;10.50;99.90
48666;DHT22;34452;50.796;4.994;2023-02-19T04:05:18;10.50;99.90
48666;DHT22;34452;50.796;4.994;2023-02-19T04:07:49;10.50;99.90
48666;DHT22;34452;50.796;4.994;2023-02-19T04:10:16;10.50;99.90
48666;DHT22;34452;50.796;4.994;2023-02-19T04:12:49;10.50;99.90
48666;DHT22;34452;50.796;4.994;2023-02-19T04:15:22;10.50;99.90
48666;DHT22;34452;50.796;4.994;2023-02-19T04:17:55;10.50;99.90
48666;DHT22;34452;50.796;4.994;2023-02-19T04:20:24;10.50;99.90
48666;DHT22;34452;50.796;4.994;2023-02-19T04:22:52;10.50;99.90
48666;DHT22;34452;50.796;4.994;2023-02-19T04:25:18;10.50;99.90
48666;DHT22;34452;50.796;4.994;2023-02-19T04:27:45;10.50;99.90
48666;DHT22;34452;50.796;4.994;2023-02-19T04:30:12;10.50;99.90
48666;DHT22;34452;50.796;4.994;2023-02-19T04:32:38;10.50;99.90
48666;DHT22;34452;50.796;4.994;2023-02-19T04:35:04;10.50;99.90
48666;DHT22;34452;50.796;4.994;2023-02-19T04:37:30;10.50;99.90
48666;DHT22;34452;50.796;4.994;2023-02-19T04:39:56;10.50;99.90
48666;DHT22;34452;50.796;4.994;2023-02-19T04:42:22;10.60;99.90
48666;DHT22;34452;50.796;4.994;2023-02-19T04:44:47;10.50;99.90
48666;DHT22;34452;50.796;4.994;2023-02-19T04:47:13;10.50;99.90
48666;DHT22;34452;50.796;4.994;2023-02-19T04:49:42;10.50;99.90
48666;DHT22;34452;50.796;4.994;2023-02-19T04:52:08;10.50;99.90
48666;DHT22;34452;50.796;4.994;2023-02-19T04:54:34;10.50;99.90
48666;DHT22;34452;50.796;4.994;2023-02-19T04:57:00;10.50;99.90
48666;DHT22;34452;50.796;4.994;2023-02-19T04:59:25;10.50;99.90
48666;DHT22;34452;50.796;4.994;2023-02-19T05:01:51;10.50;99.90
48666;DHT22;34452;50.796;4.994;2023-02-19T05:04:17;10.50;99.90
48666;DHT22;34452;50.796;4.994;2023-02-19T05:06:43;10.50;99.90
48666;DHT22;34452;50.796;4.994;2023-02-19T05:09:09;10.40;99.90
48666;DHT22;34452;50.796;4.994;2023-02-19T05:11:34;10.40;99.90
48666;DHT22;34452;50.796;4.994;2023-02-19T05:14:00;10.40;99.90
48666;DHT22;34452;50.796;4.994;2023-02-19T05:16:26;10.50;99.90
48666;DHT22;34452;50.796;4.994;2023-02-19T05:18:51;10.40;99.90
48666;DHT22;34452;50.796;4.994;2023-02-19T05:21:18;10.50;99.90
48666;DHT22;34452;50.796;4.994;2023-02-19T05:23:43;10.50;99.90
48666;DHT22;34452;50.796;4.994;2023-02-19T05:26:22;10.50;99.90
48666;DHT22;34452;50.796;4.994;2023-02-19T05:28:50;10.40;99.90
48666;DHT22;34452;50.796;4.994;2023-02-19T05:31:16;10.40;99.90
48666;DHT22;34452;50.796;4.994;2023-02-19T05:33:42;10.40;99.90
48666;DHT22;34452;50.796;4.994;2023-02-19T05:36:10;10.40;99.90
48666;DHT22;34452;50.796;4.994;2023-02-19T05:38:37;10.40;99.90
48666;DHT22;34452;50.796;4.994;2023-02-19T05:41:21;10.40;99.90
48666;DHT22;34452;50.796;4.994;2023-02-19T05:43:47;10.40;99.90
48666;DHT22;34452;50.796;4.994;2023-02-19T05:46:16;10.40;99.90
48666;DHT22;34452;50.796;4.994;2023-02-19T05:48:42;10.40;99.90
48666;DHT22;34452;50.796;4.994;2023-02-19T05:51:11;10.40;99.90
48666;DHT22;34452;50.796;4.994;2023-02-19T05:53:37;10.30;99.90
48666;DHT22;34452;50.796;4.994;2023-02-19T05:56:04;10.40;99.90
48666;DHT22;34452;50.796;4.994;2023-02-19T05:58:41;10.30;99.90
48666;DHT22;34452;50.796;4.994;2023-02-19T06:01:15;10.30;99.90
48666;DHT22;34452;50.796;4.994;2023-02-19T06:03:41;10.30;99.90
48666;DHT22;34452;50.796;4.994;2023-02-19T06:06:08;10.30;99.90
48666;DHT22;34452;50.796;4.994;2023-02-19T06:08:34;10.30;99.90
48666;DHT22;34452;50.796;4.994;2023-02-19T06:11:00;10.30;99.90
48666;DHT22;34452;50.796;4.994;2023-02-19T06:13:25;10.30;99.90
48666;DHT22;34452;50.796;4.994;2023-02-19T06:15:51;10.30;99.90
48666;DHT22;34452;50.796;4.994;2023-02-19T06:18:17;10.30;99.90
48666;DHT22;34452;50.796;4.994;2023-02-19T06:20:42;10.30;99.90
48666;DHT22;34452;50.796;4.994;2023-02-19T06:23:08;10.30;99.90
48666;DHT22;34452;50.796;4.994;2023-02-19T06:25:34;10.30;99.90
48666;DHT22;34452;50.796;4.994;2023-02-19T06:27:59;10.30;99.90
48666;DHT22;34452;50.796;4.994;2023-02-19T06:30:25;10.30;99.90
48666;DHT22;34452;50.796;4.994;2023-02-19T06:32:51;10.30;99.90
48666;DHT22;34452;50.796;4.994;2023-02-19T06:35:19;10.30;99.90
48666;DHT22;34452;50.796;4.994;2023-02-19T06:37:46;10.30;99.90
48666;DHT22;34452;50.796;4.994;2023-02-19T06:40:12;10.30;99.90
48666;DHT22;34452;50.796;4.994;2023-02-19T06:42:37;10.20;99.90
48666;DHT22;34452;50.796;4.994;2023-02-19T06:45:03;10.20;99.90
48666;DHT22;34452;50.796;4.994;2023-02-19T06:47:31;10.20;99.90
48666;DHT22;34452;50.796;4.994;2023-02-19T06:49:57;10.20;99.90
48666;DHT22;34452;50.796;4.994;2023-02-19T06:52:22;10.20;99.90
48666;DHT22;34452;50.796;4.994;2023-02-19T06:54:48;10.20;99.90
48666;DHT22;34452;50.796;4.994;2023-02-19T06:57:14;10.20;99.90
48666;DHT22;34452;50.796;4.994;2023-02-19T06:59:40;10.20;99.90
48666;DHT22;34452;50.796;4.994;2023-02-19T07:02:06;10.20;99.90
48666;DHT22;34452;50.796;4.994;2023-02-19T07:04:31;10.20;99.90
48666;DHT22;34452;50.796;4.994;2023-02-19T07:06:57;10.20;99.90
48666;DHT22;34452;50.796;4.994;2023-02-19T07:09:24;10.20;99.90
48666;DHT22;34452;50.796;4.994;2023-02-19T07:11:50;10.20;99.90
48666;DHT22;34452;50.796;4.994;2023-02-19T07:14:16;10.20;99.90
48666;DHT22;34452;50.796;4.994;2023-02-19T07:16:42;10.30;99.90
48666;DHT22;34452;50.796;4.994;2023-02-19T07:19:09;10.30;99.90
48666;DHT22;34452;50.796;4.994;2023-02-19T07:21:36;10.30;99.90
48666;DHT22;34452;50.796;4.994;2023-02-19T07:24:03;10.30;99.90
48666;DHT22;34452;50.796;4.994;2023-02-19T07:26:29;10.20;99.90
48666;DHT22;34452;50.796;4.994;2023-02-19T07:28:55;10.30;99.90
48666;DHT22;34452;50.796;4.994;2023-02-19T07:31:22;10.30;99.90
48666;DHT22;34452;50.796;4.994;2023-02-19T07:33:48;10.30;99.90
48666;DHT22;34452;50.796;4.994;2023-02-19T07:36:14;10.30;99.90
48666;DHT22;34452;50.796;4.994;2023-02-19T07:38:42;10.30;99.90
48666;DHT22;34452;50.796;4.994;2023-02-19T07:41:08;10.30;99.90
48666;DHT22;34452;50.796;4.994;2023-02-19T07:43:35;10.30;99.90
48666;DHT22;34452;50.796;4.994;2023-02-19T07:46:05;10.30;99.90
48666;DHT22;34452;50.796;4.994;2023-02-19T07:48:30;10.30;99.90
48666;DHT22;34452;50.796;4.994;2023-02-19T07:50:58;10.40;99.90
48666;DHT22;34452;50.796;4.994;2023-02-19T07:53:26;10.40;99.90
48666;DHT22;34452;50.796;4.994;2023-02-19T07:55:52;10.30;99.90
48666;DHT22;34452;50.796;4.994;2023-02-19T07:58:18;10.40;99.90
48666;DHT22;34452;50.796;4.994;2023-02-19T08:00:44;10.30;99.90
48666;DHT22;34452;50.796;4.994;2023-02-19T08:03:10;10.40;99.90
48666;DHT22;34452;50.796;4.994;2023-02-19T08:05:37;10.30;99.90
48666;DHT22;34452;50.796;4.994;2023-02-19T08:08:06;10.40;99.90
48666;DHT22;34452;50.796;4.994;2023-02-19T08:10:32;10.40;99.90
48666;DHT22;34452;50.796;4.994;2023-02-19T08:13:17;10.40;99.90
48666;DHT22;34452;50.796;4.994;2023-02-19T08:15:45;10.40;99.90
48666;DHT22;34452;50.796;4.994;2023-02-19T08:18:12;10.40;99.90
48666;DHT22;34452;50.796;4.994;2023-02-19T08:20:39;10.50;99.90
48666;DHT22;34452;50.796;4.994;2023-02-19T08:23:05;10.40;99.90
48666;DHT22;34452;50.796;4.994;2023-02-19T08:25:31;10.50;99.90
48666;DHT22;34452;50.796;4.994;2023-02-19T08:27:57;10.50;99.90
48666;DHT22;34452;50.796;4.994;2023-02-19T08:30:26;10.50;99.90
48666;DHT22;34452;50.796;4.994;2023-02-19T08:32:52;10.50;99.90
48666;DHT22;34452;50.796;4.994;2023-02-19T08:35:18;10.60;99.90
48666;DHT22;34452;50.796;4.994;2023-02-19T08:37:43;10.60;99.90
48666;DHT22;34452;50.796;4.994;2023-02-19T08:40:09;10.50;99.90
48666;DHT22;34452;50.796;4.994;2023-02-19T08:42:35;10.60;99.90
48666;DHT22;34452;50.796;4.994;2023-02-19T08:45:01;10.50;99.90
48666;DHT22;34452;50.796;4.994;2023-02-19T08:47:27;10.50;99.90
48666;DHT22;34452;50.796;4.994;2023-02-19T08:49:52;10.50;99.90
48666;DHT22;34452;50.796;4.994;2023-02-19T08:52:18;10.50;99.90
48666;DHT22;34452;50.796;4.994;2023-02-19T08:54:44;10.40;99.90
48666;DHT22;34452;50.796;4.994;2023-02-19T08:57:10;10.40;99.90
48666;DHT22;34452;50.796;4.994;2023-02-19T08:59:35;10.30;99.90
48666;DHT22;34452;50.796;4.994;2023-02-19T09:02:01;10.30;99.90
48666;DHT22;34452;50.796;4.994;2023-02-19T09:04:27;10.30;99.90
48666;DHT22;34452;50.796;4.994;2023-02-19T09:06:53;10.20;99.90
48666;DHT22;34452;50.796;4.994;2023-02-19T09:09:18;10.20;99.90
48666;DHT22;34452;50.796;4.994;2023-02-19T09:11:45;10.30;99.90
48666;DHT22;34452;50.796;4.994;2023-02-19T09:14:11;10.40;99.90
48666;DHT22;34452;50.796;4.994;2023-02-19T09:16:36;10.30;99.90
48666;DHT22;34452;50.796;4.994;2023-02-19T09:19:03;10.40;99.90
48666;DHT22;34452;50.796;4.994;2023-02-19T09:21:29;10.40;99.90
48666;DHT22;34452;50.796;4.994;2023-02-19T09:23:55;10.40;99.90
48666;DHT22;34452;50.796;4.994;2023-02-19T09:26:21;10.40;99.90
48666;DHT22;34452;50.796;4.994;2023-02-19T09:28:47;10.50;99.90
48666;DHT22;34452;50.796;4.994;2023-02-19T09:31:14;10.40;99.90
48666;DHT22;34452;50.796;4.994;2023-02-19T09:33:59;10.50;99.90
48666;DHT22;34452;50.796;4.994;2023-02-19T09:36:24;10.50;99.90
48666;DHT22;34452;50.796;4.994;2023-02-19T09:38:50;10.60;99.90
48666;DHT22;34452;50.796;4.994;2023-02-19T09:43:47;10.50;99.90
48666;DHT22;34452;50.796;4.994;2023-02-19T09:46:36;10.50;99.90
48666;DHT22;34452;50.796;4.994;2023-02-19T09:51:52;10.60;99.90
48666;DHT22;34452;50.796;4.994;2023-02-19T09:54:23;10.70;99.90
48666;DHT22;34452;50.796;4.994;2023-02-19T09:56:50;10.70;99.90
48666;DHT22;34452;50.796;4.994;2023-02-19T09:59:21;10.70;99.90
48666;DHT22;34452;50.796;4.994;2023-02-19T10:01:50;10.70;99.90
48666;DHT22;34452;50.796;4.994;2023-02-19T10:04:18;10.80;99.90
48666;DHT22;34452;50.796;4.994;2023-02-19T10:06:44;10.80;99.90
48666;DHT22;34452;50.796;4.994;2023-02-19T10:11:41;11.00;99.90
48666;DHT22;34452;50.796;4.994;2023-02-19T10:14:13;11.10;99.90
48666;DHT22;34452;50.796;4.994;2023-02-19T10:16:42;11.00;99.90
48666;DHT22;34452;50.796;4.994;2023-02-19T10:19:11;11.00;99.90
48666;DHT22;34452;50.796;4.994;2023-02-19T10:21:37;11.00;99.90
48666;DHT22;34452;50.796;4.994;2023-02-19T10:24:05;11.00;99.90
48666;DHT22;34452;50.796;4.994;2023-02-19T10:26:32;11.00;99.90
48666;DHT22;34452;50.796;4.994;2023-02-19T10:29:02;11.10;99.90
48666;DHT22;34452;50.796;4.994;2023-02-19T10:31:30;11.20;99.90
48666;DHT22;34452;50.796;4.994;2023-02-19T10:33:59;11.20;99.90
48666;DHT22;34452;50.796;4.994;2023-02-19T10:36:44;11.30;99.90
48666;DHT22;34452;50.796;4.994;2023-02-19T10:39:29;11.30;99.90
48666;DHT22;34452;50.796;4.994;2023-02-19T10:41:57;11.30;99.90
48666;DHT22;34452;50.796;4.994;2023-02-19T10:44:27;11.30;99.90
48666;DHT22;34452;50.796;4.994;2023-02-19T10:46:55;11.30;99.90
48666;DHT22;34452;50.796;4.994;2023-02-19T10:49:39;11.20;99.90
48666;DHT22;34452;50.796;4.994;2023-02-19T10:57:53;11.40;99.90
48666;DHT22;34452;50.796;4.994;2023-02-19T11:00:36;11.50;99.90
48666;DHT22;34452;50.796;4.994;2023-02-19T11:03:18;11.40;99.90
48666;DHT22;34452;50.796;4.994;2023-02-19T11:06:00;11.50;99.90
48666;DHT22;34452;50.796;4.994;2023-02-19T11:08:26;11.40;99.90
48666;DHT22;34452;50.796;4.994;2023-02-19T11:10:53;11.40;99.90
48666;DHT22;34452;50.796;4.994;2023-02-19T11:13:27;11.50;99.90
48666;DHT22;34452;50.796;4.994;2023-02-19T11:15:56;11.60;99.90
48666;DHT22;34452;50.796;4.994;2023-02-19T11:18:26;11.60;99.90
48666;DHT22;34452;50.796;4.994;2023-02-19T11:20:55;11.50;99.90
48666;DHT22;34452;50.796;4.994;2023-02-19T11:23:27;11.40;99.90
48666;DHT22;34452;50.796;4.994;2023-02-19T11:25:55;11.40;99.90
48666;DHT22;34452;50.796;4.994;2023-02-19T11:28:29;11.30;99.90
48666;DHT22;34452;50.796;4.994;2023-02-19T11:31:13;11.20;99.90
48666;DHT22;34452;50.796;4.994;2023-02-19T11:36:32;11.00;99.90
48666;DHT22;34452;50.796;4.994;2023-02-19T11:44:44;11.30;99.90
48666;DHT22;34452;50.796;4.994;2023-02-19T11:56:23;11.60;99.90
48666;DHT22;34452;50.796;4.994;2023-02-19T11:59:01;11.60;99.90
48666;DHT22;34452;50.796;4.994;2023-02-19T12:01:50;11.60;99.90
48666;DHT22;34452;50.796;4.994;2023-02-19T12:04:30;11.50;99.90
48666;DHT22;34452;50.796;4.994;2023-02-19T12:21:19;11.30;99.90
48666;DHT22;34452;50.796;4.994;2023-02-19T12:24:06;11.30;99.90
48666;DHT22;34452;50.796;4.994;2023-02-19T12:29:46;11.40;99.90
48666;DHT22;34452;50.796;4.994;2023-02-19T12:32:19;11.40;99.90
48666;DHT22;34452;50.796;4.994;2023-02-19T12:37:56;11.30;99.90
48666;DHT22;34452;50.796;4.994;2023-02-19T12:40:47;11.30;99.90
48666;DHT22;34452;50.796;4.994;2023-02-19T12:43:30;11.30;99.90
48666;DHT22;34452;50.796;4.994;2023-02-19T12:46:02;11.30;99.90
48666;DHT22;34452;50.796;4.994;2023-02-19T12:48:46;11.30;99.90
48666;DHT22;34452;50.796;4.994;2023-02-19T12:51:20;11.20;99.90
48666;DHT22;34452;50.796;4.994;2023-02-19T12:54:01;11.30;99.90
48666;DHT22;34452;50.796;4.994;2023-02-19T12:56:38;11.30;99.90
48666;DHT22;34452;50.796;4.994;2023-02-19T12:59:21;11.30;99.90
48666;DHT22;34452;50.796;4.994;2023-02-19T13:07:13;11.20;99.90
48666;DHT22;34452;50.796;4.994;2023-02-19T13:12:43;11.20;99.90
48666;DHT22;34452;50.796;4.994;2023-02-19T13:15:30;11.20;99.90
48666;DHT22;34452;50.796;4.994;2023-02-19T13:17:59;11.30;99.90
48666;DHT22;34452;50.796;4.994;2023-02-19T13:20:39;11.30;99.90
48666;DHT22;34452;50.796;4.994;2023-02-19T13:23:10;11.30;99.90
48666;DHT22;34452;50.796;4.994;2023-02-19T13:26:20;11.30;99.90
48666;DHT22;34452;50.796;4.994;2023-02-19T13:28:52;11.40;99.90
48666;DHT22;34452;50.796;4.994;2023-02-19T13:31:38;11.30;99.90
48666;DHT22;34452;50.796;4.994;2023-02-19T13:34:43;11.30;99.90
48666;DHT22;34452;50.796;4.994;2023-02-19T13:37:14;11.30;99.90
48666;DHT22;34452;50.796;4.994;2023-02-19T13:39:53;11.20;99.90
48666;DHT22;34452;50.796;4.994;2023-02-19T13:42:26;11.20;99.90
48666;DHT22;34452;50.796;4.994;2023-02-19T13:44:52;11.20;99.90
48666;DHT22;34452;50.796;4.994;2023-02-19T13:50:28;11.10;99.90
48666;DHT22;34452;50.796;4.994;2023-02-19T13:52:55;11.00;99.90
48666;DHT22;34452;50.796;4.994;2023-02-19T14:01:07;10.80;99.90
48666;DHT22;34452;50.796;4.994;2023-02-19T14:06:01;10.70;99.90
48666;DHT22;34452;50.796;4.994;2023-02-19T14:08:49;10.80;99.90
48666;DHT22;34452;50.796;4.994;2023-02-19T14:11:17;10.70;99.90
48666;DHT22;34452;50.796;4.994;2023-02-19T14:14:01;10.70;99.90
48666;DHT22;34452;50.796;4.994;2023-02-19T14:19:13;10.80;99.90
48666;DHT22;34452;50.796;4.994;2023-02-19T14:21:40;10.80;99.90
48666;DHT22;34452;50.796;4.994;2023-02-19T14:24:11;10.80;99.90
48666;DHT22;34452;50.796;4.994;2023-02-19T14:26:39;10.80;99.90
48666;DHT22;34452;50.796;4.994;2023-02-19T14:29:07;10.80;99.90
48666;DHT22;34452;50.796;4.994;2023-02-19T14:31:37;10.70;99.90
48666;DHT22;34452;50.796;4.994;2023-02-19T14:34:05;10.70;99.90
48666;DHT22;34452;50.796;4.994;2023-02-19T14:39:25;10.50;99.90
48666;DHT22;34452;50.796;4.994;2023-02-19T14:41:56;10.40;99.90
48666;DHT22;34452;50.796;4.994;2023-02-19T14:44:25;10.30;99.90
48666;DHT22;34452;50.796;4.994;2023-02-19T14:46:56;10.20;99.90
48666;DHT22;34452;50.796;4.994;2023-02-19T14:49:44;10.10;99.90
48666;DHT22;34452;50.796;4.994;2023-02-19T14:55:28;10.20;99.90
48666;DHT22;34452;50.796;4.994;2023-02-19T14:57:57;10.20;99.90
48666;DHT22;34452;50.796;4.994;2023-02-19T15:00:25;10.20;99.90
48666;DHT22;34452;50.796;4.994;2023-02-19T15:02:53;10.20;99.90
48666;DHT22;34452;50.796;4.994;2023-02-19T15:10:42;10.20;99.90
48666;DHT22;34452;50.796;4.994;2023-02-19T15:13:09;10.20;99.90
48666;DHT22;34452;50.796;4.994;2023-02-19T15:15:43;10.20;99.90
48666;DHT22;34452;50.796;4.994;2023-02-19T15:18:18;10.20;99.90
48666;DHT22;34452;50.796;4.994;2023-02-19T15:20:45;10.10;99.90
48666;DHT22;34452;50.796;4.994;2023-02-19T15:23:18;10.00;99.90
48666;DHT22;34452;50.796;4.994;2023-02-19T15:25:45;10.00;99.90
48666;DHT22;34452;50.796;4.994;2023-02-19T15:33:33;9.90;99.90
48666;DHT22;34452;50.796;4.994;2023-02-19T15:36:03;9.80;99.90
48666;DHT22;34452;50.796;4.994;2023-02-19T15:38:30;9.90;99.90
48666;DHT22;34452;50.796;4.994;2023-02-19T15:40:57;9.80;99.90
48666;DHT22;34452;50.796;4.994;2023-02-19T15:43:40;9.90;99.90
48666;DHT22;34452;50.796;4.994;2023-02-19T15:46:17;9.90;99.90
48666;DHT22;34452;50.796;4.994;2023-02-19T15:48:49;10.00;99.90
48666;DHT22;34452;50.796;4.994;2023-02-19T15:51:23;10.00;99.90
48666;DHT22;34452;50.796;4.994;2023-02-19T15:53:55;10.10;99.90
48666;DHT22;34452;50.796;4.994;2023-02-19T15:56:27;10.10;99.90
48666;DHT22;34452;50.796;4.994;2023-02-19T15:59:00;10.10;99.90
48666;DHT22;34452;50.796;4.994;2023-02-19T16:01:35;10.00;99.90
48666;DHT22;34452;50.796;4.994;2023-02-19T16:04:03;10.00;99.90
48666;DHT22;34452;50.796;4.994;2023-02-19T16:09:19;9.80;99.90
48666;DHT22;34452;50.796;4.994;2023-02-19T16:11:50;9.90;99.90
48666;DHT22;34452;50.796;4.994;2023-02-19T16:14:29;9.90;99.90
48666;DHT22;34452;50.796;4.994;2023-02-19T16:17:13;9.90;99.90
48666;DHT22;34452;50.796;4.994;2023-02-19T16:22:12;9.90;99.90
48666;DHT22;34452;50.796;4.994;2023-02-19T16:24:43;9.90;99.90
48666;DHT22;34452;50.796;4.994;2023-02-19T16:27:11;9.90;99.90
48666;DHT22;34452;50.796;4.994;2023-02-19T16:29:38;9.90;99.90
48666;DHT22;34452;50.796;4.994;2023-02-19T16:32:06;9.90;99.90
48666;DHT22;34452;50.796;4.994;2023-02-19T16:37:37;9.90;99.90
48666;DHT22;34452;50.796;4.994;2023-02-19T16:45:14;9.80;99.90
48666;DHT22;34452;50.796;4.994;2023-02-19T16:47:39;9.80;99.90
48666;DHT22;34452;50.796;4.994;2023-02-19T16:50:13;9.80;99.90
48666;DHT22;34452;50.796;4.994;2023-02-19T16:52:54;9.70;99.90
48666;DHT22;34452;50.796;4.994;2023-02-19T16:55:21;9.70;99.90
48666;DHT22;34452;50.796;4.994;2023-02-19T16:57:46;9.60;99.90
48666;DHT22;34452;50.796;4.994;2023-02-19T17:00:29;9.70;99.90
48666;DHT22;34452;50.796;4.994;2023-02-19T17:03:00;9.70;99.90
48666;DHT22;34452;50.796;4.994;2023-02-19T17:05:28;9.70;99.90
48666;DHT22;34452;50.796;4.994;2023-02-19T17:07:55;9.60;99.90
48666;DHT22;34452;50.796;4.994;2023-02-19T17:10:23;9.60;99.90
48666;DHT22;34452;50.796;4.994;2023-02-19T17:12:51;9.60;99.90
48666;DHT22;34452;50.796;4.994;2023-02-19T17:15:17;9.50;99.90
48666;DHT22;34452;50.796;4.994;2023-02-19T17:17:43;9.60;99.90
48666;DHT22;34452;50.796;4.994;2023-02-19T17:20:28;9.50;99.90
48666;DHT22;34452;50.796;4.994;2023-02-19T17:22:55;9.50;99.90
48666;DHT22;34452;50.796;4.994;2023-02-19T17:25:22;9.50;99.90
48666;DHT22;34452;50.796;4.994;2023-02-19T17:27:47;9.50;99.90
48666;DHT22;34452;50.796;4.994;2023-02-19T17:30:19;9.60;99.90
48666;DHT22;34452;50.796;4.994;2023-02-19T17:32:47;9.50;99.90
48666;DHT22;34452;50.796;4.994;2023-02-19T17:35:13;9.60;99.90
48666;DHT22;34452;50.796;4.994;2023-02-19T17:37:39;9.60;99.90
48666;DHT22;34452;50.796;4.994;2023-02-19T17:42:44;9.50;99.90
48666;DHT22;34452;50.796;4.994;2023-02-19T17:45:10;9.50;99.90
48666;DHT22;34452;50.796;4.994;2023-02-19T17:47:35;9.50;99.90
48666;DHT22;34452;50.796;4.994;2023-02-19T17:50:01;9.50;99.90
48666;DHT22;34452;50.796;4.994;2023-02-19T17:52:27;9.50;99.90
48666;DHT22;34452;50.796;4.994;2023-02-19T17:54:53;9.50;99.90
48666;DHT22;34452;50.796;4.994;2023-02-19T17:57:19;9.50;99.90
48666;DHT22;34452;50.796;4.994;2023-02-19T17:59:45;9.50;99.90
48666;DHT22;34452;50.796;4.994;2023-02-19T18:02:11;9.50;99.90
48666;DHT22;34452;50.796;4.994;2023-02-19T18:04:36;9.50;99.90